Time;durP1;ratioP1;P1;durP2;ratioP2;P2;SDS_P1;SDS_P2;PMS_P1;PMS_P2;Temp;Humidity;BMP_temperature;BMP_pressure;BME280_temperature;BME280_humidity;BME280_pressure;Samples;Min_cycle;Max_cycle;Signal;HPM_P1;HPM_P2
2023/10/12 00:01:07;;;;;;;10.10;4.18;;;;;;;18.19;87.06;100304.28;6130842;28;20044;-66
2023/10/12 00:04:06;;;;;;;7.68;2.47;;;;;;;18.34;86.80;100313.78;6133028;28;20424;-66
2023/10/12 00:07:31;;;;;;;8.88;2.85;;;;;;;18.43;86.04;100317.91;6126768;28;20051;-66
2023/10/12 00:10:37;;;;;;;10.60;3.08;;;;;;;18.43;86.29;100322.47;6131300;28;20040;-65
2023/10/12 00:13:33;;;;;;;;;;;;;;;18.41;86.73;100320.00;6133452;28;20062;-65
2023/10/12 00:16:28;;;;;;;8.43;3.00;;;;;;;18.39;87.79;100329.28;6130759;28;20414;-65
2023/10/12 00:19:25;;;;;;;6.32;2.63;;;;;;;18.26;88.29;100307.81;6135556;28;20028;-66
2023/10/12 00:22:20;;;;;;;7.85;2.80;;;;;;;18.19;88.71;100304.28;6107337;28;20024;-67
2023/10/12 00:25:16;;;;;;;9.87;2.90;;;;;;;18.16;89.85;100310.06;6128643;28;20028;-66
2023/10/12 00:28:19;;;;;;;9.02;3.25;;;;;;;18.07;90.89;100305.94;6133447;28;20425;-67
2023/10/12 00:31:21;;;;;;;12.38;3.10;;;;;;;18.00;91.61;100305.06;6124476;28;20040;-65
2023/10/12 00:34:22;;;;;;;9.45;2.58;;;;;;;17.96;91.83;100302.00;6109701;28;20024;-66
2023/10/12 00:37:18;;;;;;;6.72;2.67;;;;;;;17.87;92.58;100294.31;6124625;28;20123;-67
2023/10/12 00:40:26;;;;;;;9.77;2.93;;;;;;;17.90;92.68;100296.59;6135801;28;20372;-67
2023/10/12 00:43:22;;;;;;;8.57;2.90;;;;;;;17.84;93.54;100299.06;6131937;28;20021;-66
2023/10/12 00:49:22;;;;;;;9.93;3.70;;;;;;;17.76;93.96;100287.69;6135341;28;20029;-66
2023/10/12 00:52:26;;;;;;;12.70;3.40;;;;;;;17.85;93.41;100299.91;6106555;28;20033;-66
2023/10/12 00:55:35;;;;;;;11.38;3.05;;;;;;;17.76;94.27;100293.06;6123530;28;20029;-66
2023/10/12 00:58:31;;;;;;;10.45;3.83;;;;;;;17.80;94.59;100311.22;6127963;28;20028;-66
2023/10/12 01:01:27;;;;;;;10.32;3.92;;;;;;;17.88;92.52;100306.72;6131715;28;20162;-65
2023/10/12 01:04:22;;;;;;;8.48;2.70;;;;;;;17.92;92.32;100307.94;6125640;28;20142;-66
2023/10/12 01:07:25;;;;;;;9.82;3.00;;;;;;;17.95;94.91;100334.38;6126214;28;20582;-66
2023/10/12 01:10:27;;;;;;;8.10;3.05;;;;;;;17.77;97.78;100335.78;6128920;28;20036;-66
2023/10/12 01:13:24;;;;;;;13.40;3.53;;;;;;;17.54;100.00;100310.31;6130865;28;20025;-66
2023/10/12 01:16:23;;;;;;;11.90;3.38;;;;;;;17.32;100.00;100306.91;6129189;28;20028;-66
2023/10/12 01:19:22;;;;;;;7.72;3.60;;;;;;;17.05;100.00;100323.88;6123429;28;20024;-66
2023/10/12 01:22:25;;;;;;;9.13;3.30;;;;;;;16.78;100.00;100319.38;6132528;28;20033;-66
2023/10/12 01:25:29;;;;;;;9.45;3.22;;;;;;;16.69;100.00;100309.84;6126747;28;20032;-67
2023/10/12 01:28:25;;;;;;;13.52;3.55;;;;;;;16.61;100.00;100329.53;6123312;28;20110;-66
2023/10/12 01:31:27;;;;;;;7.90;2.60;;;;;;;16.62;100.00;100332.06;6128206;28;20136;-67
2023/10/12 01:34:24;;;;;;;12.85;3.85;;;;;;;16.56;100.00;100326.63;6127734;28;20025;-67
2023/10/12 01:37:27;;;;;;;13.30;3.60;;;;;;;16.40;100.00;100324.19;6124316;28;20373;-67
2023/10/12 01:40:24;;;;;;;8.43;3.67;;;;;;;16.25;100.00;100313.56;6126340;28;20495;-68
2023/10/12 01:43:20;;;;;;;17.08;3.92;;;;;;;16.23;100.00;100337.00;6127835;28;20021;-67
2023/10/12 01:46:21;;;;;;;10.77;3.28;;;;;;;16.11;100.00;100321.69;6129296;28;20490;-67
2023/10/12 01:49:19;;;;;;;11.63;3.10;;;;;;;16.12;100.00;100324.16;6130268;28;20043;-67
2023/10/12 01:52:14;;;;;;;10.90;3.67;;;;;;;16.09;100.00;100321.84;6127063;28;20024;-67
2023/10/12 01:55:18;;;;;;;8.60;3.60;;;;;;;16.12;100.00;100340.19;6122835;28;20472;-68
2023/10/12 01:58:15;;;;;;;13.25;3.78;;;;;;;16.07;100.00;100340.78;6118335;28;20021;-66
2023/10/12 02:01:18;;;;;;;13.57;3.83;;;;;;;16.00;100.00;100331.88;6131718;28;20566;-67
2023/10/12 02:04:13;;;;;;;9.18;3.47;;;;;;;15.88;100.00;100324.53;6122376;28;20039;-67
2023/10/12 02:07:10;;;;;;;9.40;3.70;;;;;;;15.95;100.00;100353.00;6131842;28;20028;-65
2023/10/12 02:10:11;;;;;;;11.00;4.00;;;;;;;15.86;100.00;100345.28;6128936;28;20044;-68
2023/10/12 02:13:07;;;;;;;10.52;3.78;;;;;;;15.73;100.00;100361.19;6120136;28;20058;-67
2023/10/12 02:16:03;;;;;;;9.45;4.13;;;;;;;15.62;100.00;100375.03;6129721;28;20043;-66
2023/10/12 02:19:00;;;;;;;11.82;4.45;;;;;;;15.54;100.00;100377.81;6121779;28;20108;-67
2023/10/12 02:22:01;;;;;;;14.32;4.82;;;;;;;15.46;100.00;100374.19;6122853;28;20036;-67
2023/10/12 02:25:18;;;;;;;13.20;4.70;;;;;;;15.39;100.00;100381.28;6130401;28;20036;-66
2023/10/12 02:28:14;;;;;;;12.10;5.25;;;;;;;15.23;100.00;100381.47;6125432;28;20449;-66
2023/10/12 02:31:12;;;;;;;12.40;5.07;;;;;;;15.19;100.00;100374.81;6127692;28;20029;-66
2023/10/12 02:34:15;;;;;;;12.98;5.47;;;;;;;15.17;100.00;100376.84;6128137;28;20542;-66
2023/10/12 02:37:16;;;;;;;17.73;5.72;;;;;;;15.13;100.00;100386.28;6115291;28;20063;-66
2023/10/12 02:40:12;;;;;;;16.83;5.90;;;;;;;15.13;100.00;100390.78;6129748;28;20039;-66
2023/10/12 02:43:10;;;;;;;11.63;5.83;;;;;;;15.07;100.00;100391.50;6103737;28;20056;-67
2023/10/12 02:46:21;;;;;;;12.27;5.32;;;;;;;15.08;100.00;100394.00;6121877;28;20270;-66
2023/10/12 02:49:16;;;;;;;14.18;5.85;;;;;;;15.01;100.00;100403.75;6130378;28;20040;-68
2023/10/12 02:52:15;;;;;;;14.18;6.63;;;;;;;14.87;100.00;100384.00;6103838;28;20040;-66
2023/10/12 02:58:23;;;;;;;16.05;6.68;;;;;;;14.91;100.00;100408.53;6117134;28;20036;-67
2023/10/12 03:01:19;;;;;;;15.82;6.25;;;;;;;14.84;100.00;100402.22;6124942;28;20024;-67
2023/10/12 03:04:17;;;;;;;12.75;6.70;;;;;;;14.76;100.00;100404.97;6124764;28;20383;-66
2023/10/12 03:07:22;;;;;;;16.38;6.85;;;;;;;14.78;100.00;100408.31;6125204;28;20129;-67
2023/10/12 03:10:24;;;;;;;19.17;6.70;;;;;;;14.79;100.00;100415.28;6129373;28;20036;-68
2023/10/12 03:13:24;;;;;;;14.43;6.70;;;;;;;14.69;100.00;100402.22;6109723;28;20079;-67
2023/10/12 03:19:18;;;;;;;12.50;6.43;;;;;;;14.64;100.00;100431.28;6127778;28;19916;-67
2023/10/12 03:22:31;;;;;;;18.45;7.70;;;;;;;14.64;100.00;100439.28;6132786;28;20031;-68
2023/10/12 03:25:37;;;;;;;;;;;;;;;14.63;100.00;100437.63;6129941;28;20032;-68
2023/10/12 03:28:43;;;;;;;20.23;7.72;;;;;;;14.59;100.00;100441.66;6124250;28;19999;-68
2023/10/12 03:37:53;;;;;;;18.33;7.68;;;;;;;14.49;100.00;100462.41;6132320;28;20040;-68
2023/10/12 03:41:30;;;;;;;19.13;7.93;;;;;;;14.45;100.00;100461.13;6129203;28;20115;-68
2023/10/12 03:44:17;;;;;;;17.83;7.50;;;;;;;14.41;100.00;100462.47;6119680;28;20385;-69
2023/10/12 03:50:15;;;;;;;23.40;8.82;;;;;;;14.20;100.00;100460.41;6125912;28;20059;-70
2023/10/12 03:53:15;;;;;;;18.75;9.27;;;;;;;14.27;100.00;100480.03;6126751;28;20038;-68
2023/10/12 03:56:15;;;;;;;22.35;8.93;;;;;;;14.16;100.00;100475.06;6125683;28;20043;-69
2023/10/12 03:59:12;;;;;;;20.13;9.48;;;;;;;14.19;100.00;100485.41;6129985;28;20036;-70
2023/10/12 04:02:13;;;;;;;24.90;10.30;;;;;;;14.22;100.00;100489.56;6132708;28;20056;-71
2023/10/12 04:05:16;;;;;;;22.60;10.00;;;;;;;14.16;100.00;100483.06;6127719;28;20044;-68
2023/10/12 04:14:21;;;;;;;19.27;8.88;;;;;;;13.91;100.00;100500.22;6137075;28;20039;-68
2023/10/12 04:20:24;;;;;;;23.88;10.27;;;;;;;13.99;100.00;100510.00;6129515;28;20032;-69
2023/10/12 04:29:30;;;;;;;19.03;10.17;;;;;;;13.88;100.00;100515.72;6125382;28;20487;-67
2023/10/12 04:32:53;;;;;;;15.73;8.23;;;;;;;13.82;100.00;100511.91;6131356;28;20060;-68
2023/10/12 04:41:46;;;;;;;12.37;5.60;;;;;;;13.71;100.00;100498.94;6125234;28;20060;-69
2023/10/12 04:44:51;;;;;;;12.82;5.28;;;;;;;13.77;100.00;100511.59;6125733;28;20060;-69
2023/10/12 04:47:48;;;;;;;17.63;5.20;;;;;;;13.56;100.00;100482.00;6133782;28;20032;-70
2023/10/12 04:50:52;;;;;;;13.35;5.30;;;;;;;13.65;100.00;100489.78;6130538;28;20526;-70
2023/10/12 04:54:17;;;;;;;15.68;5.43;;;;;;;13.73;100.00;100497.75;6115145;28;20039;-69
2023/10/12 04:57:14;;;;;;;14.13;5.80;;;;;;;13.66;100.00;100463.97;6131321;28;20451;-69
2023/10/12 05:00:24;;;;;;;18.67;6.40;;;;;;;13.71;100.00;100470.47;6128340;28;20434;-68
2023/10/12 05:03:26;;;;;;;16.52;5.90;;;;;;;13.67;100.00;100454.97;6123565;28;20124;-68
2023/10/12 05:06:24;;;;;;;13.63;6.43;;;;;;;13.67;100.00;100454.97;6118620;28;20036;-69
2023/10/12 05:09:19;;;;;;;15.38;6.10;;;;;;;13.56;100.00;100450.03;6130856;28;20483;-68
2023/10/12 05:12:18;;;;;;;14.30;5.87;;;;;;;13.53;100.00;100453.03;6134450;28;20036;-67
2023/10/12 05:15:19;;;;;;;12.20;5.93;;;;;;;13.56;100.00;100464.16;6128019;28;20117;-67
2023/10/12 05:18:17;;;;;;;17.40;6.07;;;;;;;13.60;100.00;100460.16;6122290;28;20032;-68
2023/10/12 05:21:13;;;;;;;20.63;6.85;;;;;;;13.57;100.00;100470.34;6116758;28;20123;-67
2023/10/12 05:24:09;;;;;;;14.60;6.30;;;;;;;13.56;100.00;100487.34;6132330;28;20036;-68
2023/10/12 05:27:23;;;;;;;14.80;6.57;;;;;;;13.57;100.00;100481.00;6128372;28;20028;-68
2023/10/12 05:30:20;;;;;;;16.85;6.82;;;;;;;13.28;100.00;100449.59;6123497;28;20034;-67
2023/10/12 05:33:37;;;;;;;13.25;6.40;;;;;;;13.48;100.00;100490.03;6130396;28;20127;-68
2023/10/12 05:36:31;;;;;;;13.45;5.68;;;;;;;13.42;100.00;100474.72;6127917;28;20388;-69
2023/10/12 05:39:27;;;;;;;21.35;6.57;;;;;;;13.34;100.00;100488.88;6128927;28;20032;-69
2023/10/12 05:42:22;;;;;;;15.13;6.68;;;;;;;13.47;100.00;100505.16;6122586;28;20041;-69
2023/10/12 05:45:22;;;;;;;16.67;6.63;;;;;;;13.48;100.00;100503.34;6101024;28;20087;-68
2023/10/12 05:48:19;;;;;;;18.63;7.13;;;;;;;13.44;100.00;100510.00;6098990;28;20468;-69
2023/10/12 05:51:18;;;;;;;17.52;7.35;;;;;;;13.48;100.00;100528.13;6098318;28;20061;-68
2023/10/12 05:54:20;;;;;;;14.77;6.15;;;;;;;13.53;100.00;100522.31;6099963;28;20450;-69
2023/10/12 05:57:24;;;;;;;13.60;6.50;;;;;;;13.53;100.00;100523.13;6099281;28;20039;-68
2023/10/12 06:00:35;;;;;;;12.70;5.80;;;;;;;13.57;100.00;100544.94;6098604;28;20618;-69
2023/10/12 06:03:30;;;;;;;14.25;5.90;;;;;;;13.53;100.00;100543.63;6098354;28;20041;-68
2023/10/12 06:06:26;;;;;;;15.82;6.53;;;;;;;13.57;100.00;100544.94;6100127;28;20098;-68
2023/10/12 06:09:24;;;;;;;16.33;6.35;;;;;;;13.63;100.00;100557.59;6098090;28;20033;-68
2023/10/12 06:12:21;;;;;;;13.15;5.60;;;;;;;13.63;100.00;100555.75;6098492;28;20033;-68
2023/10/12 06:15:22;;;;;;;17.05;6.60;;;;;;;13.70;100.00;100555.91;6079991;28;20063;-67
2023/10/12 06:18:29;;;;;;;14.93;7.18;;;;;;;13.67;100.00;100553.56;6097932;28;20067;-68
2023/10/12 06:21:24;;;;;;;15.20;5.88;;;;;;;13.68;100.00;100576.56;6098139;28;20094;-67
2023/10/12 06:24:35;;;;;;;16.47;6.10;;;;;;;13.73;100.00;100593.72;6097143;28;20037;-67
2023/10/12 06:27:31;;;;;;;15.48;6.47;;;;;;;13.75;100.00;100601.56;6092110;28;20279;-67
2023/10/12 06:30:26;;;;;;;15.63;6.35;;;;;;;13.59;100.00;100594.38;6096541;28;20032;-68
2023/10/12 06:33:22;;;;;;;8.87;4.03;;;;;;;13.44;100.00;100606.72;6102521;28;20042;-68
2023/10/12 06:36:46;;;;;;;8.48;3.60;;;;;;;13.38;100.00;100614.53;6101378;28;20700;-67
2023/10/12 06:40:17;;;;;;;8.80;3.35;;;;;;;13.18;100.00;100613.22;6096491;28;20139;-67
2023/10/12 06:46:07;;;;;;;3.33;1.48;;;;;;;12.88;100.00;100619.97;6100951;28;20179;-66
2023/10/12 06:49:04;;;;;;;4.80;1.35;;;;;;;12.87;100.00;100627.13;6096727;28;20147;-67
2023/10/12 06:52:03;;;;;;;4.18;1.20;;;;;;;12.90;100.00;100649.91;6096206;28;20370;-66
2023/10/12 06:54:59;;;;;;;3.92;1.10;;;;;;;12.77;100.00;100653.03;6095614;28;20464;-67
2023/10/12 06:57:55;;;;;;;2.17;1.00;;;;;;;12.72;100.00;100644.69;6094845;28;20060;-68
2023/10/12 07:01:18;;;;;;;3.17;0.87;;;;;;;12.68;100.00;100642.53;6094354;28;20033;-67
2023/10/12 07:04:15;;;;;;;2.40;0.80;;;;;;;12.66;100.00;100661.31;6094687;28;20072;-66
2023/10/12 07:07:15;;;;;;;1.95;0.80;;;;;;;12.68;100.00;100663.81;6095313;28;20036;-67
2023/10/12 07:13:09;;;;;;;5.88;0.80;;;;;;;12.61;100.00;100663.59;6095370;28;20108;-67
2023/10/12 07:16:08;;;;;;;4.82;0.85;;;;;;;12.70;100.00;100678.59;6095294;28;20237;-67
2023/10/12 07:19:05;;;;;;;2.80;0.82;;;;;;;12.62;100.00;100691.03;6095331;28;20025;-66
2023/10/12 07:22:01;;;;;;;1.30;0.60;;;;;;;12.65;100.00;100696.88;6095511;28;20017;-67
2023/10/12 07:24:59;;;;;;;2.05;0.77;;;;;;;12.48;100.00;100700.44;6095634;28;20408;-67
2023/10/12 07:28:00;;;;;;;4.78;1.10;;;;;;;12.35;100.00;100710.69;6095496;28;20037;-66
2023/10/12 07:34:15;;;;;;;10.07;1.13;;;;;;;12.17;100.00;100713.41;6099017;28;20116;-66
2023/10/12 07:37:13;;;;;;;5.68;1.10;;;;;;;12.40;100.00;100725.19;6098787;28;20049;-69
2023/10/12 07:40:19;;;;;;;7.30;1.40;;;;;;;12.25;100.00;100720.59;6095768;28;20029;-69
2023/10/12 07:43:18;;;;;;;8.93;1.00;;;;;;;12.22;100.00;100729.72;6095346;28;20040;-68
2023/10/12 07:46:13;;;;;;;5.45;1.00;;;;;;;12.37;100.00;100736.13;6091018;28;20044;-68
2023/10/12 07:52:23;;;;;;;7.70;1.00;;;;;;;12.44;100.00;100731.88;6095628;28;20028;-68
2023/10/12 07:55:21;;;;;;;5.00;0.82;;;;;;;12.44;100.00;100734.53;6095497;28;20040;-69
2023/10/12 07:58:18;;;;;;;5.05;0.90;;;;;;;12.39;100.00;100750.09;6094686;28;20060;-68
2023/10/12 08:01:38;;;;;;;5.65;0.75;;;;;;;12.41;100.00;100742.81;6095564;28;20040;-68
2023/10/12 08:04:34;;;;;;;4.80;1.55;;;;;;;12.23;100.00;100738.56;6094944;28;20040;-67
2023/10/12 08:07:55;;;;;;;3.33;1.33;;;;;;;12.22;100.00;100752.81;6096287;28;20060;-68
2023/10/12 08:13:47;;;;;;;6.17;1.10;;;;;;;12.05;100.00;100756.34;6095399;28;20527;-68
2023/10/12 08:16:43;;;;;;;6.13;1.60;;;;;;;11.88;100.00;100750.91;6100233;28;20274;-68
2023/10/12 08:19:44;;;;;;;11.87;2.03;;;;;;;11.96;100.00;100765.25;6100905;28;20029;-67
2023/10/12 08:22:39;;;;;;;7.50;1.75;;;;;;;12.00;100.00;100754.16;6102109;28;20390;-68
2023/10/12 08:25:40;;;;;;;5.10;0.90;;;;;;;12.00;100.00;100766.59;6099962;28;20060;-67
2023/10/12 08:28:54;;;;;;;3.47;1.10;;;;;;;12.10;100.00;100770.00;6099421;28;20029;-68
2023/10/12 08:35:38;;;;;;;5.25;0.98;;;;;;;12.00;100.00;100790.53;6066902;28;20045;-67
2023/10/12 08:38:40;;;;;;;14.10;1.10;;;;;;;12.06;100.00;100782.78;6090573;28;20091;-67
2023/10/12 08:41:56;;;;;;;6.72;1.20;;;;;;;11.87;100.00;100773.16;6095315;28;20041;-66
2023/10/12 08:44:53;;;;;;;8.85;1.75;;;;;;;12.06;100.00;100793.41;6099096;28;20504;-67
2023/10/12 08:47:49;;;;;;;6.03;1.13;;;;;;;11.93;100.00;100791.13;6096807;28;20029;-66
2023/10/12 08:50:49;;;;;;;5.95;1.50;;;;;;;11.95;100.00;100793.66;6094733;28;20032;-66
2023/10/12 08:53:45;;;;;;;8.48;1.60;;;;;;;12.01;100.00;100793.03;6082123;28;20040;-66
2023/10/12 08:56:45;;;;;;;9.40;1.50;;;;;;;12.08;100.00;100798.56;6091607;28;20103;-67
2023/10/12 08:59:42;;;;;;;7.10;1.58;;;;;;;12.04;100.00;100803.34;6075174;28;20044;-67
2023/10/12 09:02:39;;;;;;;4.63;1.05;;;;;;;12.06;100.00;100795.22;6097194;28;20484;-67
2023/10/12 09:05:35;;;;;;;11.15;1.52;;;;;;;12.13;100.00;100822.84;6077060;28;20040;-67
2023/10/12 09:11:34;;;;;;;8.63;1.63;;;;;;;12.09;100.00;100801.09;6090695;28;20428;-67
2023/10/12 09:14:32;;;;;;;8.68;1.50;;;;;;;12.23;100.00;100824.44;6098387;28;20056;-67
2023/10/12 09:17:30;;;;;;;4.90;1.35;;;;;;;12.20;100.00;100815.97;6075759;28;20498;-67
2023/10/12 09:20:31;;;;;;;8.05;0.93;;;;;;;12.15;100.00;100818.25;6094744;28;20033;-67
2023/10/12 09:26:34;;;;;;;5.05;1.23;;;;;;;12.40;100.00;100826.25;6098140;28;20087;-67
2023/10/12 09:29:41;;;;;;;8.50;1.27;;;;;;;12.42;100.00;100824.25;6084068;28;20033;-67
2023/10/12 09:32:42;;;;;;;;;;;;;;;12.41;100.00;100829.75;6094267;28;20068;-66
2023/10/12 09:35:40;;;;;;;6.40;1.33;;;;;;;12.39;100.00;100829.06;6100030;28;19967;-67
2023/10/12 09:38:38;;;;;;;9.10;1.23;;;;;;;12.39;100.00;100831.72;6082049;28;20069;-67
2023/10/12 09:41:39;;;;;;;4.35;1.10;;;;;;;12.48;100.00;100825.47;6096478;28;20492;-67
2023/10/12 09:44:39;;;;;;;8.88;1.15;;;;;;;12.45;100.00;100817.78;6097399;28;20417;-67
2023/10/12 09:47:44;;;;;;;7.45;1.38;;;;;;;12.67;100.00;100827.94;6089778;28;20127;-67
2023/10/12 09:50:40;;;;;;;7.82;1.17;;;;;;;12.92;100.00;100820.91;6097355;28;20064;-67
2023/10/12 09:53:41;;;;;;;7.20;1.17;;;;;;;12.85;100.00;100838.53;6073619;28;20065;-68
2023/10/12 09:56:46;;;;;;;8.15;1.17;;;;;;;12.85;100.00;100839.38;6081457;28;20392;-67
2023/10/12 09:59:51;;;;;;;7.40;1.40;;;;;;;12.79;100.00;100847.97;6085423;28;20071;-67
2023/10/12 10:02:49;;;;;;;7.03;1.20;;;;;;;12.73;100.00;100847.75;6094773;28;20083;-67
2023/10/12 10:05:51;;;;;;;5.43;1.40;;;;;;;12.86;100.00;100859.66;6094898;28;20029;-66
2023/10/12 10:09:02;;;;;;;6.55;1.00;;;;;;;12.98;100.00;100847.75;6079857;28;20037;-66
2023/10/12 10:12:00;;;;;;;9.40;1.10;;;;;;;13.06;100.00;100852.28;6097528;28;20039;-65
2023/10/12 10:15:10;;;;;;;6.25;1.17;;;;;;;13.17;100.00;100846.72;6086876;28;20052;-67
2023/10/12 10:18:05;;;;;;;4.70;1.10;;;;;;;13.41;100.00;100840.66;6098390;28;20037;-66
2023/10/12 10:21:06;;;;;;;2.97;0.90;;;;;;;14.21;100.00;100854.13;6096517;28;20055;-66
2023/10/12 10:24:03;;;;;;;6.53;1.10;;;;;;;14.18;100.00;100841.16;6099142;28;20040;-66
2023/10/12 10:27:12;;;;;;;8.88;2.15;;;;;;;14.13;100.00;100846.13;6092467;28;20028;-65
2023/10/12 10:30:25;;;;;;;5.15;1.23;;;;;;;14.25;100.00;100851.97;6100046;28;20029;-66
2023/10/12 10:33:24;;;;;;;4.35;0.98;;;;;;;14.67;100.00;100844.66;6093389;28;20064;-66
2023/10/12 10:36:27;;;;;;;8.18;1.10;;;;;;;15.05;100.00;100859.09;6091708;28;20043;-65
2023/10/12 10:42:30;;;;;;;4.03;1.10;;;;;;;15.05;100.00;100848.41;6096008;28;20047;-66
2023/10/12 10:45:26;;;;;;;7.28;1.55;;;;;;;15.21;100.00;100852.88;6096973;28;20040;-65
2023/10/12 10:48:22;;;;;;;4.88;0.88;;;;;;;15.25;100.00;100838.97;6082104;28;20037;-66
2023/10/12 10:51:19;;;;;;;4.68;1.30;;;;;;;14.76;100.00;100837.44;6096001;28;20522;-66
2023/10/12 10:54:20;;;;;;;8.93;1.50;;;;;;;15.02;100.00;100837.22;6099834;28;20673;-65
2023/10/12 10:57:16;;;;;;;3.83;0.95;;;;;;;15.22;100.00;100844.66;6090519;28;20479;-66
2023/10/12 11:00:44;;;;;;;7.85;1.85;;;;;;;15.48;100.00;100845.28;6077016;28;20060;-66
2023/10/12 11:03:42;;;;;;;6.15;1.17;;;;;;;15.51;100.00;100836.06;6089597;28;20033;-65
2023/10/12 11:06:39;;;;;;;8.82;1.45;;;;;;;15.99;100.00;100837.59;6094727;28;20036;-64
2023/10/12 11:12:48;;;;;;;6.68;1.17;;;;;;;14.58;100.00;100829.66;6090841;28;20125;-65
2023/10/12 11:15:44;;;;;;;4.67;0.80;;;;;;;14.99;100.00;100822.38;6106482;28;20032;-65
2023/10/12 11:18:46;;;;;;;6.47;1.20;;;;;;;14.78;100.00;100838.13;6096215;28;20036;-65
2023/10/12 11:21:46;;;;;;;8.70;1.60;;;;;;;15.03;100.00;100834.38;6092741;28;20044;-64
2023/10/12 11:24:45;;;;;;;6.43;1.20;;;;;;;15.20;100.00;100833.31;6100194;28;20083;-65
2023/10/12 11:27:41;;;;;;;6.30;1.40;;;;;;;14.81;100.00;100840.47;6093545;28;20118;-65
2023/10/12 11:30:42;;;;;;;4.57;1.20;;;;;;;14.71;100.00;100824.63;6099293;28;20480;-65
2023/10/12 11:33:38;;;;;;;;;;;;;;;14.59;100.00;100838.50;6095360;28;20040;-65
2023/10/12 11:36:35;;;;;;;9.15;1.13;;;;;;;14.55;100.00;100826.47;6086829;28;20003;-65
2023/10/12 11:39:40;;;;;;;4.53;1.10;;;;;;;14.72;100.00;100833.47;6095032;28;20040;-65
2023/10/12 11:42:51;;;;;;;7.70;0.90;;;;;;;14.38;100.00;100841.66;6100179;28;20037;-65
2023/10/12 11:46:01;;;;;;;9.32;1.52;;;;;;;13.93;100.00;100836.78;6093106;28;20037;-65
2023/10/12 11:49:07;;;;;;;5.85;1.10;;;;;;;14.13;100.00;100838.13;6094700;28;20021;-64
2023/10/12 11:52:17;;;;;;;6.88;0.90;;;;;;;14.14;100.00;100836.28;6095063;28;20037;-64
2023/10/12 11:55:20;;;;;;;5.30;1.00;;;;;;;14.24;100.00;100837.00;6092104;28;20029;-65
2023/10/12 11:58:19;;;;;;;8.40;1.20;;;;;;;14.17;100.00;100844.81;6080440;28;20032;-65
2023/10/12 12:01:18;;;;;;;6.22;1.20;;;;;;;13.93;100.00;100844.78;6100227;28;20025;-65
2023/10/12 12:04:23;;;;;;;8.98;1.75;;;;;;;13.83;100.00;100846.78;6099053;28;20029;-65
2023/10/12 12:07:20;;;;;;;9.82;1.25;;;;;;;13.87;100.00;100842.78;6099773;28;20105;-65
2023/10/12 12:10:17;;;;;;;5.82;1.17;;;;;;;13.95;100.00;100842.78;6101602;28;20036;-64
2023/10/12 12:13:15;;;;;;;5.93;1.40;;;;;;;14.17;100.00;100850.13;6100373;28;20415;-66
2023/10/12 12:16:10;;;;;;;7.25;1.20;;;;;;;14.09;100.00;100844.81;6102445;28;20035;-65
2023/10/12 12:19:05;;;;;;;7.07;1.33;;;;;;;14.02;100.00;100846.44;6099057;28;20033;-66
2023/10/12 12:22:01;;;;;;;7.63;1.97;;;;;;;13.69;100.00;100847.41;6099642;28;20025;-65
2023/10/12 12:24:57;;;;;;;5.47;0.97;;;;;;;13.84;100.00;100850.25;6100349;28;20068;-64
2023/10/12 12:27:59;;;;;;;5.93;0.98;;;;;;;13.88;100.00;100836.44;6097917;28;20667;-64
2023/10/12 12:30:55;;;;;;;6.28;1.35;;;;;;;13.87;100.00;100834.78;6099014;28;20411;-65
2023/10/12 12:33:52;;;;;;;5.32;1.10;;;;;;;13.80;100.00;100827.59;6099259;28;20036;-64
2023/10/12 12:36:48;;;;;;;8.43;1.48;;;;;;;13.64;100.00;100839.06;6097068;28;20076;-66
2023/10/12 12:39:43;;;;;;;6.82;1.40;;;;;;;13.49;100.00;100827.34;6098977;28;20041;-65
2023/10/12 12:42:39;;;;;;;10.93;1.40;;;;;;;13.29;100.00;100821.44;6098934;28;20095;-65
2023/10/12 12:45:37;;;;;;;10.13;1.63;;;;;;;13.33;100.00;100824.63;6104706;28;20268;-66
2023/10/12 12:48:33;;;;;;;7.35;1.38;;;;;;;13.35;100.00;100809.31;6098988;28;20278;-66
2023/10/12 12:51:29;;;;;;;5.63;3.00;;;;;;;13.36;100.00;100835.81;6098104;28;20404;-66
2023/10/12 12:54:25;;;;;;;7.03;1.30;;;;;;;13.54;100.00;100833.03;6099577;28;20113;-64
2023/10/12 12:57:20;;;;;;;9.15;1.50;;;;;;;13.76;100.00;100843.06;6098668;28;20033;-65
2023/10/12 13:00:21;;;;;;;3.57;1.17;;;;;;;13.57;100.00;100832.69;6098231;28;20035;-65
2023/10/12 13:03:16;;;;;;;8.32;1.08;;;;;;;13.57;100.00;100838.88;6097729;28;20044;-65
2023/10/12 13:06:14;;;;;;;7.70;1.55;;;;;;;13.51;100.00;100839.50;6096276;28;20484;-65
2023/10/12 13:09:28;;;;;;;9.35;1.70;;;;;;;13.49;100.00;100830.00;6096044;28;20395;-66
2023/10/12 13:12:23;;;;;;;8.82;1.45;;;;;;;13.28;100.00;100825.13;6098170;28;20033;-65
2023/10/12 13:15:19;;;;;;;8.63;1.37;;;;;;;13.26;100.00;100834.28;6099278;28;20036;-66
2023/10/12 13:18:14;;;;;;;5.82;1.20;;;;;;;13.35;100.00;100827.97;6098389;28;20279;-66
2023/10/12 13:21:14;;;;;;;6.47;1.30;;;;;;;13.36;100.00;100824.31;6102666;28;20146;-65
2023/10/12 13:24:13;;;;;;;5.80;1.30;;;;;;;13.33;100.00;100837.94;6097428;28;20276;-65
2023/10/12 13:27:08;;;;;;;6.32;1.88;;;;;;;13.22;100.00;100835.56;6098841;28;20079;-64
2023/10/12 13:30:11;;;;;;;6.72;1.17;;;;;;;13.22;100.00;100828.41;6096776;28;20044;-65
2023/10/12 13:33:09;;;;;;;6.63;1.30;;;;;;;13.19;100.00;100812.75;6096818;28;20041;-65
2023/10/12 13:36:04;;;;;;;8.40;1.42;;;;;;;12.98;100.00;100823.78;6097782;28;20116;-65
2023/10/12 13:39:00;;;;;;;12.35;1.55;;;;;;;13.01;100.00;100815.50;6096047;28;20037;-66
2023/10/12 13:41:56;;;;;;;10.63;1.73;;;;;;;13.17;100.00;100819.25;6098367;28;20040;-66
2023/10/12 13:44:52;;;;;;;9.57;2.00;;;;;;;12.98;100.00;100820.28;6098443;28;20479;-66
2023/10/12 13:47:47;;;;;;;6.53;1.48;;;;;;;12.87;100.00;100813.41;6098719;28;20040;-64
2023/10/12 13:50:46;;;;;;;12.00;1.80;;;;;;;12.82;100.00;100813.06;6099179;28;20065;-65
2023/10/12 13:53:42;;;;;;;5.30;1.38;;;;;;;12.75;100.00;100817.31;6098167;28;20040;-66
2023/10/12 13:56:37;;;;;;;7.33;1.43;;;;;;;12.88;100.00;100815.06;6092709;28;20657;-64
2023/10/12 13:59:33;;;;;;;6.67;1.57;;;;;;;12.85;100.00;100810.09;6097710;28;20829;-65
2023/10/12 14:02:28;;;;;;;11.90;2.97;;;;;;;13.08;100.00;100813.88;6097726;28;20025;-67
2023/10/12 14:05:30;;;;;;;10.93;2.40;;;;;;;12.95;100.00;100809.97;6096984;28;20041;-66
2023/10/12 14:08:28;;;;;;;4.55;1.70;;;;;;;13.16;100.00;100814.91;6095179;28;20586;-66
2023/10/12 14:11:23;;;;;;;5.15;1.80;;;;;;;13.09;100.00;100807.56;6097040;28;20029;-65
2023/10/12 14:14:19;;;;;;;7.60;2.23;;;;;;;13.18;100.00;100805.75;6091657;28;20071;-65
2023/10/12 14:17:14;;;;;;;13.67;1.53;;;;;;;13.21;100.00;100799.31;6098118;28;20028;-66
2023/10/12 14:20:09;;;;;;;6.20;1.38;;;;;;;13.16;100.00;100796.25;6097259;28;20387;-66
2023/10/12 14:23:08;;;;;;;5.43;1.50;;;;;;;13.16;100.00;100801.59;6096954;28;20079;-65
2023/10/12 14:26:03;;;;;;;6.82;2.67;;;;;;;13.21;100.00;100799.31;6097638;28;20104;-65
2023/10/12 14:29:03;;;;;;;5.23;1.50;;;;;;;13.09;100.00;100796.94;6094659;28;20041;-67
2023/10/12 14:32:02;;;;;;;7.05;1.85;;;;;;;13.06;100.00;100791.03;6097716;28;20511;-64
2023/10/12 14:34:58;;;;;;;12.30;2.30;;;;;;;13.00;100.00;100797.84;6099037;28;20045;-65
2023/10/12 14:37:56;;;;;;;12.48;3.10;;;;;;;13.04;100.00;100793.84;6095115;28;20079;-66
2023/10/12 14:40:56;;;;;;;7.03;1.83;;;;;;;13.02;100.00;100790.53;6096906;28;20032;-65
2023/10/12 14:43:53;;;;;;;10.38;2.20;;;;;;;13.24;100.00;100778.47;6094157;28;20037;-65
2023/10/12 14:46:50;;;;;;;8.65;1.90;;;;;;;13.47;100.00;100781.41;6089589;28;20059;-65
2023/10/12 14:49:48;;;;;;;10.82;1.88;;;;;;;13.30;100.00;100788.50;6095828;28;20047;-64
2023/10/12 14:52:43;;;;;;;6.63;1.88;;;;;;;13.23;100.00;100781.31;6094300;28;20037;-65
2023/10/12 14:55:42;;;;;;;10.37;1.80;;;;;;;13.27;100.00;100787.97;6092116;28;20088;-65